Time;durP1;ratioP1;P1;durP2;ratioP2;P2;SDS_P1;SDS_P2;PMS_P1;PMS_P2;Temp;Humidity;BMP_temperature;BMP_pressure;BME280_temperature;BME280_humidity;BME280_pressure;Samples;Min_cycle;Max_cycle;Signal;HPM_P1;HPM_P2
2023/04/05 00:02:09;;;;;;;2.50;1.63;;;24.10;45.60;;;;;;5115459;28;20683;-67
2023/04/05 00:04:59;;;;;;;1.75;1.65;;;24.00;45.50;;;;;;5115416;28;20584;-67
2023/04/05 00:07:53;;;;;;;1.63;1.50;;;23.90;45.40;;;;;;5115367;28;20690;-68
2023/04/05 00:10:41;;;;;;;2.05;1.70;;;24.00;45.00;;;;;;5115228;28;20695;-68
2023/04/05 00:13:29;;;;;;;1.65;1.48;;;24.00;45.50;;;;;;5114952;28;20207;-67
2023/04/05 00:16:18;;;;;;;1.95;1.60;;;24.10;45.50;;;;;;5115650;28;20301;-67
2023/04/05 00:19:06;;;;;;;1.85;1.60;;;24.00;44.80;;;;;;5113627;28;20234;-67
2023/04/05 00:21:54;;;;;;;2.05;1.40;;;24.10;45.40;;;;;;5122984;28;20231;-67
2023/04/05 00:24:44;;;;;;;2.17;1.48;;;23.90;45.40;;;;;;5123796;28;20244;-67
2023/04/05 00:27:32;;;;;;;1.98;1.70;;;24.00;45.60;;;;;;5122441;28;20200;-68
2023/04/05 00:30:20;;;;;;;1.83;1.58;;;23.90;45.00;;;;;;5117897;28;20294;-67
2023/04/05 00:33:08;;;;;;;2.67;1.70;;;24.00;45.70;;;;;;5115018;28;20554;-67
2023/04/05 00:35:56;;;;;;;1.80;1.70;;;23.80;45.70;;;;;;5115208;28;20211;-67
2023/04/05 00:38:45;;;;;;;1.80;1.55;;;23.80;55.20;;;;;;5114823;28;20730;-67
2023/04/05 00:41:35;;;;;;;1.98;1.88;;;23.70;45.70;;;;;;5114058;28;20202;-67
2023/04/05 00:44:23;;;;;;;3.20;1.70;;;23.80;45.70;;;;;;5113488;28;20206;-67
2023/04/05 00:47:11;;;;;;;1.80;1.70;;;23.80;45.60;;;;;;5113871;28;20188;-67
2023/04/05 00:49:59;;;;;;;2.83;1.60;;;23.90;45.00;;;;;;5115470;28;20222;-67
2023/04/05 00:52:48;;;;;;;1.60;1.45;;;24.00;45.60;;;;;;5115969;28;20199;-66
2023/04/05 00:55:37;;;;;;;2.38;1.85;;;23.90;46.10;;;;;;5117715;28;20291;-67
2023/04/05 00:58:26;;;;;;;1.48;1.38;;;24.00;45.50;;;;;;5120438;28;20203;-67
2023/04/05 01:01:18;;;;;;;2.08;1.70;;;24.00;44.90;;;;;;5114920;28;20676;-67
2023/04/05 01:04:10;;;;;;;1.67;1.48;;;24.00;45.30;;;;;;5114778;28;20196;-67
2023/04/05 01:07:07;;;;;;;1.77;1.50;;;24.00;45.40;;;;;;5114294;28;20199;-67
2023/04/05 01:09:57;;;;;;;2.17;1.70;;;24.00;44.80;;;;;;5114081;28;20223;-67
2023/04/05 01:12:46;;;;;;;3.92;1.92;;;24.00;45.40;;;;;;5114786;28;20278;-67
2023/04/05 01:15:35;;;;;;;2.00;1.55;;;24.00;45.40;;;;;;5113754;28;20242;-67
2023/04/05 01:18:24;;;;;;;2.35;2.00;;;24.00;45.30;;;;;;5113642;28;20191;-67
2023/04/05 01:21:49;;;;;;;1.90;1.75;;;25.20;45.60;;;;;;5114078;28;20258;-67
2023/04/05 01:24:51;;;;;;;2.03;1.80;;;24.00;45.30;;;;;;5035562;28;20615;-67
2023/04/05 01:28:04;;;;;;;1.90;1.80;;;24.10;45.30;;;;;;5114010;28;20217;-67
2023/04/05 01:31:04;;;;;;;1.58;1.20;;;24.10;44.80;;;;;;5113340;28;20594;-67
2023/04/05 01:33:58;;;;;;;2.80;1.75;;;24.10;45.20;;;;;;5112902;28;20601;-67
2023/04/05 01:36:50;;;;;;;2.50;1.58;;;24.00;45.40;;;;;;5113520;28;20778;-67
2023/04/05 01:39:39;;;;;;;6.50;1.83;;;24.00;44.80;;;;;;5113403;28;20296;-68
2023/04/05 01:42:27;;;;;;;2.92;1.30;;;24.00;45.20;;;;;;5111783;28;20207;-67
2023/04/05 01:45:15;;;;;;;2.55;1.65;;;24.20;45.50;;;;;;5112923;28;20384;-67
2023/04/05 01:48:05;;;;;;;3.15;1.83;;;24.00;45.40;;;;;;5112814;28;20203;-67
2023/04/05 01:50:53;;;;;;;2.55;2.30;;;23.90;44.90;;;;;;5112613;28;20306;-67
2023/04/05 01:53:41;;;;;;;2.60;1.77;;;23.90;45.30;;;;;;5111906;28;20718;-67
2023/04/05 01:56:30;;;;;;;1.67;1.58;;;24.00;45.40;;;;;;5111296;28;20263;-67
2023/04/05 01:59:18;;;;;;;2.85;1.98;;;23.70;44.60;;;;;;5103934;28;20671;-67
2023/04/05 02:02:06;;;;;;;2.33;2.13;;;23.70;45.30;;;;;;5112311;28;20199;-67
2023/04/05 02:04:55;;;;;;;2.15;1.95;;;23.60;45.30;;;;;;5112495;28;20199;-67
2023/04/05 02:07:43;;;;;;;2.83;1.95;;;23.50;44.90;;;;;;5112366;28;20320;-67
2023/04/05 02:10:32;;;;;;;1.98;1.83;;;23.50;45.00;;;;;;5111654;28;20225;-67
2023/04/05 02:13:21;;;;;;;2.65;1.80;;;23.50;45.50;;;;;;5111284;28;20202;-67
2023/04/05 02:16:09;;;;;;;2.00;1.75;;;23.60;45.60;;;;;;5111867;28;20691;-67
2023/04/05 02:18:58;;;;;;;5.95;1.80;;;23.50;60.30;;;;;;5111452;28;20202;-67
2023/04/05 02:21:48;;;;;;;1.90;1.60;;;23.70;45.40;;;;;;5111303;28;20199;-68
2023/04/05 02:24:40;;;;;;;1.95;1.85;;;23.80;45.20;;;;;;5111596;28;20218;-67
2023/04/05 02:27:28;;;;;;;1.77;1.38;;;23.90;46.10;;;;;;5112455;28;20230;-67
2023/04/05 02:30:16;;;;;;;1.88;1.60;;;24.00;44.80;;;;;;5113257;28;20285;-67
2023/04/05 02:33:04;;;;;;;2.20;1.55;;;23.90;45.30;;;;;;5111792;28;20270;-67
2023/04/05 02:35:53;;;;;;;1.50;1.40;;;23.90;45.10;;;;;;5112072;28;20206;-67
2023/04/05 02:38:42;;;;;;;2.00;1.70;;;23.90;44.70;;;;;;5112236;28;20219;-67
2023/04/05 02:41:30;;;;;;;1.52;1.40;;;23.90;45.20;;;;;;5111214;28;20675;-67
2023/04/05 02:44:19;;;;;;;1.92;1.60;;;23.90;45.20;;;;;;5112580;28;20712;-67
2023/04/05 02:47:07;;;;;;;1.50;1.40;;;23.90;45.10;;;;;;5111870;28;20709;-67
2023/04/05 02:49:55;;;;;;;2.92;1.75;;;23.80;44.60;;;;;;5111140;28;20332;-67
2023/04/05 02:52:43;;;;;;;1.60;1.40;;;23.80;45.20;;;;;;5111042;28;20211;-67
2023/04/05 02:55:33;;;;;;;1.80;1.67;;;23.70;45.10;;;;;;5112309;28;20591;-67
2023/04/05 02:58:21;;;;;;;2.03;1.70;;;23.70;45.30;;;;;;5111338;28;20720;-67
2023/04/05 03:01:09;;;;;;;1.88;1.52;;;23.60;44.70;;;;;;5112576;28;20206;-67
2023/04/05 03:03:57;;;;;;;2.22;1.40;;;23.60;45.40;;;;;;5112012;28;20298;-67
2023/04/05 03:06:47;;;;;;;2.70;2.10;;;23.60;45.40;;;;;;5111180;28;20237;-67
2023/04/05 03:09:37;;;;;;;3.25;1.95;;;23.60;44.90;;;;;;5111324;28;20215;-67
2023/04/05 03:12:26;;;;;;;1.65;1.55;;;23.60;45.40;;;;;;5110815;28;20199;-67
2023/04/05 03:15:14;;;;;;;1.92;1.60;;;23.60;45.30;;;;;;5112386;28;20629;-67
2023/04/05 03:18:02;;;;;;;2.25;2.00;;;23.70;45.20;;;;;;5110951;28;20212;-67
2023/04/05 03:20:55;;;;;;;2.25;2.05;;;23.70;44.60;;;;;;5114878;28;20763;-68
2023/04/05 03:23:45;;;;;;;1.60;1.50;;;23.80;45.20;;;;;;5114404;28;20202;-67
2023/04/05 03:26:33;;;;;;;1.90;1.70;;;23.90;45.20;;;;;;5114599;28;20210;-68
2023/04/05 03:29:23;;;;;;;1.88;1.67;;;24.00;44.40;;;;;;5114257;28;20220;-67
2023/04/05 03:32:12;;;;;;;3.40;1.88;;;24.00;45.00;;;;;;5115086;28;20199;-67
2023/04/05 03:35:00;;;;;;;2.53;1.88;;;24.00;45.10;;;;;;5114214;28;20198;-67
2023/04/05 03:37:50;;;;;;;1.88;1.50;;;24.00;44.90;;;;;;5114643;28;20215;-69
2023/04/05 03:40:38;;;;;;;2.50;1.55;;;24.00;44.50;;;;;;5114199;28;20216;-67
2023/04/05 03:43:26;;;;;;;1.75;1.60;;;23.90;45.00;;;;;;5114009;28;20288;-67
2023/04/05 03:46:16;;;;;;;2.25;1.52;;;23.90;45.00;;;;;;5114318;28;20201;-68
2023/04/05 03:49:04;;;;;;;1.92;1.83;;;23.70;44.40;;;;;;5114957;28;20226;-67
2023/04/05 03:51:53;;;;;;;2.00;1.90;;;23.80;45.10;;;;;;5113588;28;20227;-67
2023/04/05 03:54:41;;;;;;;1.67;1.30;;;23.70;45.00;;;;;;5114334;28;20329;-67
2023/04/05 03:57:30;;;;;;;2.38;1.80;;;23.70;45.10;;;;;;5115561;28;20230;-68
2023/04/05 04:00:18;;;;;;;1.73;1.35;;;23.70;44.60;;;;;;5114118;28;20308;-67
2023/04/05 04:03:08;;;;;;;2.50;1.60;;;23.70;45.10;;;;;;5113515;28;20203;-68
2023/04/05 04:05:56;;;;;;;2.45;1.50;;;23.70;45.20;;;;;;5114725;28;20561;-68
2023/04/05 04:08:45;;;;;;;2.10;1.90;;;23.50;55.40;;;;;;5114273;28;20191;-67
2023/04/05 04:11:33;;;;;;;1.55;1.45;;;23.70;44.80;;;;;;5113684;28;20230;-67
2023/04/05 04:14:21;;;;;;;2.08;1.48;;;23.80;44.90;;;;;;5115072;28;20195;-68
2023/04/05 04:17:09;;;;;;;2.35;2.15;;;23.80;44.90;;;;;;5113641;28;20200;-67
2023/04/05 04:19:59;;;;;;;2.38;2.17;;;23.80;44.40;;;;;;5115206;28;20612;-68
2023/04/05 04:22:48;;;;;;;1.67;1.58;;;23.80;45.00;;;;;;5113431;28;20316;-68
2023/04/05 04:25:37;;;;;;;1.75;1.65;;;23.80;45.00;;;;;;5113628;28;20249;-68
2023/04/05 04:28:26;;;;;;;1.77;1.67;;;23.80;45.00;;;;;;5114175;28;20219;-68
2023/04/05 04:31:15;;;;;;;4.32;1.98;;;23.80;44.50;;;;;;5113650;28;20201;-68
2023/04/05 04:34:04;;;;;;;3.42;2.00;;;23.90;45.00;;;;;;5113554;28;20200;-68
2023/04/05 04:37:00;;;;;;;1.77;1.55;;;23.90;44.90;;;;;;5113973;28;20240;-68
2023/04/05 04:39:48;;;;;;;2.17;1.52;;;24.00;44.30;;;;;;5114911;28;20607;-68
2023/04/05 04:42:37;;;;;;;1.38;1.27;;;24.10;44.90;;;;;;5114595;28;20282;-68
2023/04/05 04:45:26;;;;;;;3.15;1.80;;;24.10;44.90;;;;;;5113204;28;20195;-68
2023/04/05 04:48:15;;;;;;;1.58;1.48;;;23.90;44.70;;;;;;5113628;28;20198;-68
2023/04/05 04:51:03;;;;;;;1.83;1.40;;;24.10;44.20;;;;;;5113272;28;20249;-68
2023/04/05 04:53:53;;;;;;;2.60;2.00;;;24.00;44.90;;;;;;5112930;28;20279;-68
2023/04/05 04:56:41;;;;;;;1.70;1.60;;;24.00;44.90;;;;;;5113835;28;20274;-68
2023/04/05 04:59:30;;;;;;;1.85;1.75;;;23.90;44.60;;;;;;5114100;28;20248;-68
2023/04/05 05:02:18;;;;;;;1.77;1.55;;;23.90;45.00;;;;;;5122207;28;20203;-68
2023/04/05 05:05:07;;;;;;;1.58;1.48;;;23.80;45.10;;;;;;5125017;28;20195;-68
2023/04/05 05:07:55;;;;;;;2.33;1.40;;;23.80;45.00;;;;;;5125660;27;20280;-68
2023/04/05 05:10:45;;;;;;;2.03;1.92;;;23.80;44.40;;;;;;5119893;28;20223;-68
2023/04/05 05:13:33;;;;;;;3.22;2.78;;;23.70;45.00;;;;;;5114464;28;20199;-68
2023/04/05 05:16:22;;;;;;;3.83;2.75;;;23.70;45.00;;;;;;5112544;28;20700;-68
2023/04/05 05:19:10;;;;;;;5.32;2.78;;;23.70;44.60;;;;;;5112779;28;20219;-68
2023/04/05 05:21:58;;;;;;;4.70;4.20;;;23.70;45.20;;;;;;5112821;28;20199;-68
2023/04/05 05:24:46;;;;;;;3.30;2.33;;;23.70;45.20;;;;;;5112560;28;20192;-69
2023/04/05 05:27:36;;;;;;;2.95;2.65;;;23.80;45.00;;;;;;5112984;28;20195;-69
2023/04/05 05:30:25;;;;;;;3.60;2.83;;;23.90;44.60;;;;;;5112936;28;20713;-68
2023/04/05 05:33:14;;;;;;;7.03;2.17;;;23.90;45.10;;;;;;5112637;28;20209;-68
2023/04/05 05:36:03;;;;;;;3.17;2.10;;;23.80;45.00;;;;;;5112825;28;20195;-68
2023/04/05 05:38:52;;;;;;;2.65;2.30;;;24.00;58.20;;;;;;5112683;28;20219;-68
2023/04/05 05:41:40;;;;;;;2.20;2.08;;;23.70;45.30;;;;;;5112058;28;20607;-68
2023/04/05 05:44:30;;;;;;;1.67;1.55;;;23.60;45.10;;;;;;5099969;28;20241;-68
2023/04/05 05:47:18;;;;;;;5.22;4.80;;;23.60;45.40;;;;;;5094380;28;20535;-69
2023/04/05 05:50:08;;;;;;;2.50;2.30;;;23.70;44.70;;;;;;5089364;28;20219;-68
2023/04/05 05:52:56;;;;;;;6.93;2.83;;;23.70;45.20;;;;;;5097566;28;20296;-68
2023/04/05 05:55:47;;;;;;;3.55;3.25;;;23.70;45.10;;;;;;5093789;28;20196;-69
2023/04/05 05:58:35;;;;;;;3.38;2.35;;;23.80;45.20;;;;;;5093492;28;20295;-68
2023/04/05 06:01:26;;;;;;;2.33;2.05;;;23.90;44.70;;;;;;5093240;28;21589;-68
2023/04/05 06:04:15;;;;;;;4.38;2.22;;;24.00;45.00;;;;;;5103724;28;20207;-68
2023/04/05 06:07:03;;;;;;;3.15;2.13;;;24.10;45.20;;;;;;5105671;28;20234;-68
2023/04/05 06:09:52;;;;;;;3.05;2.33;;;24.20;44.60;;;;;;5100397;28;20305;-68
2023/04/05 06:12:40;;;;;;;2.75;2.50;;;24.40;45.20;;;;;;5100802;28;20319;-68
2023/04/05 06:15:28;;;;;;;2.50;2.30;;;26.20;46.40;;;;;;5100405;28;20203;-68
2023/04/05 06:18:19;;;;;;;2.53;1.95;;;24.30;45.00;;;;;;5106337;28;20196;-68
2023/04/05 06:21:07;;;;;;;4.70;2.17;;;24.40;44.50;;;;;;5109877;28;20365;-68
2023/04/05 06:23:55;;;;;;;2.45;2.25;;;24.40;45.00;;;;;;5091420;28;20194;-68
2023/04/05 06:26:43;;;;;;;3.47;1.95;;;24.30;45.10;;;;;;5091549;28;20207;-71
2023/04/05 06:29:32;;;;;;;2.95;2.20;;;24.20;44.80;;;;;;5106005;28;20229;-71
2023/04/05 06:32:20;;;;;;;4.28;1.90;;;24.10;45.40;;;;;;5111956;28;20209;-72
2023/04/05 06:35:09;;;;;;;35.83;5.07;;;24.00;45.40;;;;;;5094643;28;20192;-73
2023/04/05 06:37:57;;;;;;;8.48;2.70;;;24.10;45.50;;;;;;5092234;28;20321;-71
2023/04/05 06:40:45;;;;;;;2.80;2.45;;;24.30;44.90;;;;;;5096846;28;20232;-68
2023/04/05 06:43:33;;;;;;;2.33;2.08;;;24.30;45.40;;;;;;5102856;28;20195;-68
2023/04/05 06:46:22;;;;;;;3.85;2.20;;;24.40;45.40;;;;;;5105862;28;20210;-68
2023/04/05 06:49:10;;;;;;;2.50;1.80;;;24.50;44.70;;;;;;5094399;28;20208;-68
2023/04/05 06:52:01;;;;;;;6.55;3.20;;;24.60;45.40;;;;;;5092766;28;20560;-68
2023/04/05 06:54:50;;;;;;;4.47;2.38;;;26.00;46.30;;;;;;5097106;28;20679;-68
2023/04/05 06:57:38;;;;;;;5.47;2.65;;;24.70;45.30;;;;;;5103857;28;20642;-68
2023/04/05 07:00:26;;;;;;;5.18;2.58;;;24.70;44.70;;;;;;5115794;28;20282;-68
2023/04/05 07:03:14;;;;;;;2.80;2.30;;;24.80;45.20;;;;;;5116125;28;20194;-69
2023/04/05 07:06:03;;;;;;;3.03;2.22;;;24.80;45.20;;;;;;5115382;28;20719;-68
2023/04/05 07:08:52;;;;;;;2.85;1.90;;;24.80;49.10;;;;;;5116488;28;20688;-68
2023/04/05 07:11:40;;;;;;;2.80;1.70;;;24.80;45.30;;;;;;5115217;28;20206;-68
2023/04/05 07:14:29;;;;;;;2.70;2.00;;;24.70;45.10;;;;;;5115546;28;20218;-69
2023/04/05 07:17:17;;;;;;;4.30;2.05;;;24.70;45.10;;;;;;5115754;28;20252;-68
2023/04/05 07:20:07;;;;;;;2.92;2.22;;;24.70;44.70;;;;;;5114937;28;20243;-68
2023/04/05 07:22:56;;;;;;;388.33;58.10;;;24.70;45.20;;;;;;5115536;28;20210;-68
2023/04/05 07:25:45;;;;;;;102.10;16.35;;;24.70;45.30;;;;;;5094347;28;20249;-69
2023/04/05 07:28:35;;;;;;;35.95;7.47;;;24.50;45.40;;;;;;5108295;28;20649;-71
2023/04/05 07:31:23;;;;;;;14.98;4.68;;;24.40;45.00;;;;;;5104411;28;20215;-70
2023/04/05 07:34:13;;;;;;;10.15;2.97;;;24.30;45.60;;;;;;5115657;28;20210;-70
2023/04/05 07:37:02;;;;;;;10.18;3.78;;;24.30;45.80;;;;;;5112814;28;20199;-70
2023/04/05 07:39:50;;;;;;;8.27;3.40;;;24.30;45.50;;;;;;5096291;28;20223;-69
2023/04/05 07:42:39;;;;;;;5.35;2.70;;;24.30;46.00;;;;;;5095186;28;20207;-69
2023/04/05 07:45:27;;;;;;;7.10;2.60;;;24.30;46.10;;;;;;5096976;28;20249;-69
2023/04/05 07:48:16;;;;;;;5.90;2.50;;;24.40;46.00;;;;;;5100762;28;20278;-69
2023/04/05 07:51:05;;;;;;;6.38;2.80;;;24.50;45.60;;;;;;5113929;28;20653;-70
2023/04/05 07:53:54;;;;;;;9.57;3.08;;;24.50;45.90;;;;;;5115497;28;20198;-70
2023/04/05 07:56:42;;;;;;;8.60;2.55;;;23.50;44.90;;;;;;5115397;28;20199;-70
2023/04/05 07:59:31;;;;;;;12.60;3.10;;;24.80;45.50;;;;;;5116335;28;20307;-70
2023/04/05 08:02:20;;;;;;;4.43;2.90;;;24.80;46.00;;;;;;5113691;28;20195;-70
2023/04/05 08:05:08;;;;;;;6.88;3.28;;;24.80;45.70;;;;;;5114664;28;20283;-70
2023/04/05 08:07:57;;;;;;;5.35;2.90;;;24.80;45.90;;;;;;5113934;28;20203;-71
2023/04/05 08:10:45;;;;;;;4.15;2.55;;;24.80;45.30;;;;;;5103855;28;20299;-71
2023/04/05 08:13:33;;;;;;;9.02;2.20;;;24.80;45.80;;;;;;5107843;28;20199;-69
2023/04/05 08:16:23;;;;;;;3.90;2.10;;;24.70;46.10;;;;;;5115549;28;20199;-70
2023/04/05 08:19:11;;;;;;;3.63;2.75;;;24.40;45.30;;;;;;5116266;27;20660;-70
2023/04/05 08:22:02;;;;;;;5.38;3.38;;;24.40;45.90;;;;;;5116023;27;20195;-71
2023/04/05 08:24:50;;;;;;;4.20;2.35;;;24.40;46.10;;;;;;5101700;28;20199;-70
2023/04/05 08:27:38;;;;;;;2.65;2.05;;;24.40;46.30;;;;;;5101459;28;20210;-69
2023/04/05 08:30:27;;;;;;;4.25;2.35;;;;;;;;;;5096959;28;20226;-65
2023/04/05 08:33:16;;;;;;;118.20;17.80;;;;;;;;;;5100227;28;20206;-65
2023/04/05 08:36:06;;;;;;;28.00;5.40;;;;;;;;;;5094982;28;20684;-64
2023/04/05 08:38:54;;;;;;;11.73;3.92;;;24.40;91.40;;;;;;5094889;28;20231;-64
2023/04/05 08:41:55;;;;;;;5.15;2.45;;;24.60;53.50;;;;;;5105184;28;20219;-64
2023/04/05 08:44:45;;;;;;;4.10;2.70;;;24.70;53.40;;;;;;5109105;28;20248;-64
2023/04/05 08:47:37;;;;;;;3.72;2.30;;;24.40;54.90;;;;;;5110394;28;20284;-65
2023/04/05 08:50:27;;;;;;;5.18;2.53;;;24.50;55.20;;;;;;5113667;28;20222;-64
2023/04/05 08:53:15;;;;;;;19.27;4.10;;;24.50;55.60;;;;;;5102223;28;20635;-64
2023/04/05 08:56:03;;;;;;;5.53;2.65;;;24.30;56.20;;;;;;5094896;28;20274;-65
2023/04/05 08:58:59;;;;;;;4.50;2.88;;;24.30;83.30;;;;;;5104179;27;20203;-64
2023/04/05 09:01:50;;;;;;;3.08;2.63;;;24.00;57.20;;;;;;5101812;28;20227;-63
2023/04/05 09:04:43;;;;;;;7.13;2.72;;;24.60;58.60;;;;;;5104469;28;20308;-63
2023/04/05 09:07:33;;;;;;;6.43;2.55;;;24.20;59.30;;;;;;5102382;28;20253;-64
2023/04/05 09:10:23;;;;;;;7.13;2.58;;;24.40;60.80;;;;;;5098850;28;20239;-63
2023/04/05 09:13:11;;;;;;;5.47;2.40;;;24.40;59.40;;;;;;5097342;28;20203;-64
2023/04/05 09:16:01;;;;;;;4.80;2.85;;;25.00;60.50;;;;;;5103660;28;20756;-64
2023/04/05 09:18:49;;;;;;;5.47;2.72;;;24.50;61.50;;;;;;5104668;28;20806;-63
2023/04/05 09:21:59;;;;;;;6.65;3.08;;;24.50;64.10;;;;;;5111514;28;20219;-63
2023/04/05 09:24:49;;;;;;;8.50;2.97;;;24.60;60.40;;;;;;5113364;28;20195;-64
2023/04/05 09:27:54;;;;;;;2.92;2.13;;;24.50;64.70;;;;;;5112779;28;20203;-64
2023/04/05 09:30:46;;;;;;;4.85;2.08;;;24.60;63.90;;;;;;5112506;28;20211;-64
2023/04/05 09:33:34;;;;;;;3.92;2.10;;;24.50;64.90;;;;;;5099126;28;20234;-64
2023/04/05 09:36:22;;;;;;;4.80;2.63;;;24.40;64.20;;;;;;5110107;28;20231;-64
2023/04/05 09:39:11;;;;;;;12.80;2.63;;;24.60;65.60;;;;;;5111640;28;20215;-64
2023/04/05 09:42:12;;;;;;;7.38;2.33;;;24.40;65.80;;;;;;5109177;28;20244;-64
2023/04/05 09:45:03;;;;;;;3.03;2.00;;;24.50;65.70;;;;;;5104359;28;20289;-64
2023/04/05 09:47:55;;;;;;;6.80;2.28;;;24.30;65.70;;;;;;5101131;28;20946;-64
2023/04/05 09:50:43;;;;;;;9.88;2.47;;;24.30;65.70;;;;;;5095795;28;20681;-63
2023/04/05 09:53:31;;;;;;;5.50;2.28;;;24.50;66.00;;;;;;5102263;28;20285;-64
2023/04/05 09:56:20;;;;;;;7.50;3.20;;;24.40;63.60;;;;;;5103754;28;20279;-64
2023/04/05 09:59:10;;;;;;;5.32;2.95;;;24.40;63.80;;;;;;5103449;28;20354;-63
2023/04/05 10:01:58;;;;;;;6.68;2.55;;;24.40;63.30;;;;;;5102442;28;20588;-65
2023/04/05 10:04:48;;;;;;;4.57;2.30;;;24.70;63.90;;;;;;5105572;28;20203;-65
2023/04/05 10:07:37;;;;;;;6.47;2.50;;;24.60;64.50;;;;;;5095775;28;20216;-65
2023/04/05 10:10:25;;;;;;;18.98;4.45;;;24.50;63.30;;;;;;5091551;28;20658;-65
2023/04/05 10:13:15;;;;;;;5.38;2.28;;;24.90;65.00;;;;;;5102916;28;20275;-64
2023/04/05 10:16:10;;;;;;;32.53;4.20;;;24.80;65.20;;;;;;5098895;28;20641;-64
2023/04/05 10:18:58;;;;;;;7.97;2.30;;;24.60;89.30;;;;;;5089418;28;20692;-65
2023/04/05 10:21:47;;;;;;;3.75;2.08;;;24.70;67.40;;;;;;5105830;28;20272;-65
2023/04/05 10:24:44;;;;;;;10.30;2.60;;;24.70;67.90;;;;;;5094415;28;20337;-65
2023/04/05 10:27:38;;;;;;;2.40;1.58;;;24.50;71.80;;;;;;5105942;28;20352;-65
2023/04/05 10:30:34;;;;;;;5.68;2.28;;;25.40;69.50;;;;;;5112324;28;20564;-62
2023/04/05 10:33:30;;;;;;;7.35;2.20;;;25.10;70.30;;;;;;5091168;28;20249;-63
2023/04/05 10:36:39;;;;;;;3.88;1.80;;;24.80;72.30;;;;;;5100484;28;20188;-65
2023/04/05 10:39:29;;;;;;;7.80;1.98;;;;;;;;;;5109004;28;20227;-64
2023/04/05 10:42:21;;;;;;;9.27;2.00;;;24.90;45.60;;;;;;5099086;28;20276;-66
2023/04/05 10:45:14;;;;;;;3.35;2.10;;;25.00;46.50;;;;;;5093137;28;20219;-66
2023/04/05 10:48:11;;;;;;;3.97;1.88;;;25.00;46.60;;;;;;5093186;28;20222;-66
2023/04/05 10:51:02;;;;;;;7.70;2.60;;;24.90;46.70;;;;;;5095635;28;20275;-66
2023/04/05 10:53:51;;;;;;;8.90;2.70;;;24.90;46.40;;;;;;5102341;28;20200;-66
2023/04/05 10:56:40;;;;;;;4.43;1.90;;;24.70;46.10;;;;;;5092850;28;20735;-65
2023/04/05 10:59:30;;;;;;;3.15;1.77;;;24.70;47.30;;;;;;5092584;28;20256;-65
2023/04/05 11:02:18;;;;;;;2.08;1.35;;;24.80;46.70;;;;;;5098831;28;20222;-65
2023/04/05 11:05:27;;;;;;;7.22;2.05;;;24.80;46.60;;;;;;5104522;28;20256;-66
2023/04/05 11:08:17;;;;;;;3.75;2.08;;;24.70;46.60;;;;;;5097578;28;20576;-66
2023/04/05 11:11:06;;;;;;;3.13;1.55;;;24.80;46.50;;;;;;5093141;28;20219;-66
2023/04/05 11:13:55;;;;;;;4.55;1.70;;;24.80;46.80;;;;;;5111508;28;20251;-65
2023/04/05 11:16:47;;;;;;;3.33;1.80;;;24.80;46.60;;;;;;5112195;28;20226;-66
2023/04/05 11:19:52;;;;;;;2.88;1.73;;;25.00;46.70;;;;;;5111389;28;20227;-66
2023/04/05 11:22:40;;;;;;;3.67;1.98;;;25.00;46.50;;;;;;5109928;28;20222;-65
2023/04/05 11:25:32;;;;;;;3.13;1.55;;;25.00;46.40;;;;;;5111682;28;20278;-67
2023/04/05 11:28:24;;;;;;;2.70;1.48;;;25.10;46.40;;;;;;5090803;28;20277;-67
2023/04/05 11:31:15;;;;;;;3.72;2.15;;;25.10;46.30;;;;;;5090880;28;20670;-65
2023/04/05 11:34:09;;;;;;;4.22;2.15;;;25.10;46.30;;;;;;5092398;28;20219;-67
2023/04/05 11:36:58;;;;;;;2.90;1.33;;;25.10;46.20;;;;;;5092235;28;20196;-66
2023/04/05 11:39:46;;;;;;;7.78;1.95;;;25.00;46.10;;;;;;5092836;28;20223;-66
2023/04/05 11:42:35;;;;;;;2.95;1.50;;;25.00;46.30;;;;;;5096499;28;20243;-66
2023/04/05 11:45:24;;;;;;;2.33;1.50;;;24.90;46.30;;;;;;5114554;28;20340;-65
2023/04/05 11:48:14;;;;;;;6.68;1.67;;;25.00;46.40;;;;;;5103473;28;20196;-65
2023/04/05 11:51:07;;;;;;;1.98;1.50;;;25.00;46.40;;;;;;5096147;28;20223;-66
2023/04/05 11:53:55;;;;;;;3.65;1.35;;;25.00;46.20;;;;;;5113781;28;20278;-66
2023/04/05 11:56:50;;;;;;;4.65;1.58;;;25.10;46.20;;;;;;5111136;28;20200;-66
2023/04/05 11:59:43;;;;;;;4.82;1.92;;;25.10;45.60;;;;;;5096109;28;20596;-66
2023/04/05 12:02:34;;;;;;;1.60;1.35;;;25.20;46.00;;;;;;5095940;28;20219;-65
2023/04/05 12:05:22;;;;;;;3.05;1.38;;;25.20;46.00;;;;;;5095591;28;20200;-66
2023/04/05 12:08:11;;;;;;;4.35;1.48;;;25.20;46.00;;;;;;5094830;28;20196;-67
2023/04/05 12:11:00;;;;;;;1.92;1.30;;;25.10;46.00;;;;;;5094715;28;20220;-68
2023/04/05 12:13:48;;;;;;;4.40;1.50;;;25.10;46.20;;;;;;5095596;28;20329;-67
2023/04/05 12:16:48;;;;;;;2.45;1.70;;;26.90;47.30;;;;;;5094116;28;20196;-67
2023/04/05 12:19:37;;;;;;;3.65;1.80;;;25.00;46.20;;;;;;5095359;28;20311;-67
2023/04/05 12:22:25;;;;;;;4.53;1.75;;;25.10;46.30;;;;;;5095053;28;20208;-67
2023/04/05 12:25:13;;;;;;;5.57;1.40;;;25.00;46.30;;;;;;5095514;28;20204;-67
2023/04/05 12:28:04;;;;;;;1.25;1.15;;;25.00;46.10;;;;;;5094656;28;20618;-67
2023/04/05 12:30:56;;;;;;;1.40;1.30;;;25.10;46.30;;;;;;5095732;28;20582;-68
2023/04/05 12:33:45;;;;;;;2.47;1.20;;;25.10;46.20;;;;;;5094681;28;20201;-67
2023/04/05 12:36:34;;;;;;;1.80;1.10;;;25.20;46.20;;;;;;5097367;28;20203;-66
2023/04/05 12:39:23;;;;;;;3.70;1.40;;;25.30;46.80;;;;;;5115060;28;20223;-68
2023/04/05 12:42:17;;;;;;;3.08;1.33;;;25.30;46.20;;;;;;5114687;28;20659;-67
2023/04/05 12:45:09;;;;;;;1.35;1.25;;;25.20;46.00;;;;;;5100550;28;20229;-67
2023/04/05 12:48:00;;;;;;;1.80;1.20;;;25.20;46.00;;;;;;5099981;28;20204;-67
2023/04/05 12:50:52;;;;;;;2.50;1.48;;;25.20;46.00;;;;;;5094104;28;20224;-67
2023/04/05 12:53:45;;;;;;;2.00;1.30;;;25.10;46.00;;;;;;5093388;28;20713;-67
2023/04/05 12:56:33;;;;;;;2.90;1.48;;;25.10;46.00;;;;;;5095570;28;20287;-66
2023/04/05 12:59:22;;;;;;;2.45;1.48;;;25.00;46.20;;;;;;5093937;28;20599;-66
2023/04/05 13:02:10;;;;;;;1.52;1.20;;;25.00;46.20;;;;;;5094199;28;20239;-66
2023/04/05 13:04:58;;;;;;;3.45;1.60;;;25.00;46.30;;;;;;5094781;28;20199;-66
2023/04/05 13:07:48;;;;;;;1.38;1.00;;;24.90;46.20;;;;;;5094670;28;20329;-68
2023/04/05 13:10:36;;;;;;;3.13;1.33;;;24.90;46.30;;;;;;5095091;28;20223;-67
2023/04/05 13:13:24;;;;;;;1.70;1.60;;;24.90;46.30;;;;;;5095172;27;20300;-66
2023/04/05 13:16:12;;;;;;;4.85;1.80;;;24.90;47.00;;;;;;5094316;28;20192;-66
2023/04/05 13:19:00;;;;;;;2.90;1.98;;;24.80;49.20;;;;;;5095794;28;20683;-67
2023/04/05 13:21:48;;;;;;;2.13;1.80;;;24.90;46.40;;;;;;5096781;28;20204;-66
2023/04/05 13:24:38;;;;;;;4.18;1.50;;;24.90;46.30;;;;;;5111738;28;20199;-67
2023/04/05 13:27:26;;;;;;;3.67;1.40;;;24.80;46.50;;;;;;5112403;28;20683;-67
2023/04/05 13:30:14;;;;;;;1.27;1.10;;;24.90;46.40;;;;;;5112722;28;20215;-67
2023/04/05 13:33:03;;;;;;;3.00;1.33;;;24.90;46.20;;;;;;5111957;28;20492;-66
2023/04/05 13:35:52;;;;;;;1.38;1.13;;;25.00;46.40;;;;;;5112091;28;20207;-66
2023/04/05 13:38:41;;;;;;;2.67;1.08;;;25.00;46.40;;;;;;5111326;28;20600;-67
2023/04/05 13:41:30;;;;;;;2.05;1.35;;;24.90;46.50;;;;;;5111973;28;20207;-65
2023/04/05 13:44:19;;;;;;;1.38;0.88;;;24.90;46.50;;;;;;5113929;27;20227;-67
2023/04/05 13:47:07;;;;;;;5.85;1.63;;;24.90;46.50;;;;;;5112137;28;20955;-67
2023/04/05 13:49:55;;;;;;;2.55;1.20;;;24.80;46.60;;;;;;5111731;28;20259;-68
2023/04/05 13:52:43;;;;;;;1.55;1.20;;;24.70;46.50;;;;;;5112860;28;20199;-67
2023/04/05 13:55:31;;;;;;;2.75;1.55;;;24.70;46.50;;;;;;5111875;28;20286;-66
2023/04/05 13:58:20;;;;;;;6.43;1.95;;;24.80;46.70;;;;;;5092185;28;20326;-68
2023/04/05 14:01:08;;;;;;;1.38;1.20;;;24.90;46.60;;;;;;5092621;28;20596;-66
2023/04/05 14:03:56;;;;;;;4.95;1.30;;;25.00;46.40;;;;;;5091647;28;20220;-66
2023/04/05 14:06:45;;;;;;;3.63;1.35;;;25.00;46.20;;;;;;5092617;28;20318;-67
2023/04/05 14:09:33;;;;;;;2.25;1.10;;;25.10;46.40;;;;;;5092167;28;20365;-67
2023/04/05 14:12:21;;;;;;;2.10;1.10;;;25.20;45.90;;;;;;5095833;28;20278;-66
2023/04/05 14:15:11;;;;;;;3.17;1.42;;;23.60;45.20;;;;;;5111059;28;20235;-67
2023/04/05 14:18:00;;;;;;;2.15;1.10;;;25.30;46.40;;;;;;5111648;28;20210;-66
2023/04/05 14:20:51;;;;;;;1.35;0.98;;;25.20;46.40;;;;;;5112921;28;20231;-66
2023/04/05 14:23:39;;;;;;;1.25;1.15;;;25.30;46.30;;;;;;5103815;28;20290;-65
2023/04/05 14:26:08;;;;;;;2.13;1.30;;;25.30;46.30;;;;;;5105887;28;20513;-66
2023/04/05 14:28:36;;;;;;;1.27;1.05;;;25.30;46.40;;;;;;5100718;28;20564;-65
2023/04/05 14:31:05;;;;;;;4.10;1.10;;;25.20;46.40;;;;;;5102375;28;20234;-66
2023/04/05 14:33:33;;;;;;;1.20;1.10;;;25.20;46.40;;;;;;5102271;28;20243;-67
2023/04/05 14:36:00;;;;;;;4.95;1.25;;;25.20;46.40;;;;;;5097420;28;20204;-65
2023/04/05 14:38:29;;;;;;;2.95;1.15;;;25.20;46.40;;;;;;5092110;28;20707;-65
2023/04/05 14:41:15;;;;;;;1.73;1.10;;;25.30;46.50;;;;;;5091671;28;20210;-67
2023/04/05 14:43:43;;;;;;;4.13;1.33;;;25.30;46.50;;;;;;5091602;28;20709;-66